Heat Index SAI AWOS Graphical Display Untitled Document
Bertrand Chaffee Hospital Heliport (2NK6) Springville, New York, USA
280
15:58
22/05/2015
08
13
VRB
30.04
N/A
1420
54(F), 12(C)
33(F), 1(C)
52 F
45%
CLR
10
N/A
0"
N/A
15:58 zulu Wind 280 at 08 Knots, Gusting 13 Knots, Altimeter 30.04
METAR K2NK6 221558Z AUTO 28008G13KT V0RB 10SM CLR 12/01 A3004 A02 P0000
METAR:
FAA Disclaimer--Advisory Use ONLY, not for flight info--
INFO:
Wind Direction:
Wind Speed:
Wind Gust:
Wind Variable:
Altimeter:
Dens Alt:
Elev:
Temp:
Dwpt:
Wind Chill
Rel Humidity:
Ceiling:
Visibility:
Prsnt Wea:
PCPN:
Remarks:
How to read the WebPage